createdAt,value
2023-02-15T00:02:57.119Z,1023.03
2023-02-15T00:06:04.423Z,1022.93
2023-02-15T00:09:11.448Z,1023.02
2023-02-15T00:12:19.477Z,1022.95
2023-02-15T00:15:27.015Z,1023.01
2023-02-15T00:18:34.382Z,1023.00
2023-02-15T00:21:42.071Z,1022.91
2023-02-15T00:24:49.165Z,1022.93
2023-02-15T00:27:56.949Z,1022.94
2023-02-15T00:31:04.692Z,1022.90
2023-02-15T00:34:12.020Z,1022.90
2023-02-15T00:37:20.070Z,1022.85
2023-02-15T00:40:28.120Z,1022.83
2023-02-15T00:43:35.349Z,1022.85
2023-02-15T00:46:43.415Z,1022.85
2023-02-15T00:49:51.124Z,1022.75
2023-02-15T00:52:58.811Z,1022.68
2023-02-15T00:56:06.582Z,1022.59
2023-02-15T00:59:13.933Z,1022.50
2023-02-15T01:02:21.197Z,1022.45
2023-02-15T01:05:28.845Z,1022.44
2023-02-15T01:08:36.065Z,1022.36
2023-02-15T01:11:43.730Z,1022.34
2023-02-15T01:14:51.281Z,1022.34
2023-02-15T01:17:58.515Z,1022.33
2023-02-15T01:21:05.981Z,1022.31
2023-02-15T01:24:13.431Z,1022.34
2023-02-15T01:27:21.106Z,1022.25
2023-02-15T01:30:28.651Z,1022.19
2023-02-15T01:33:35.942Z,1022.26
2023-02-15T01:36:43.391Z,1022.28
2023-02-15T01:39:50.571Z,1022.21
2023-02-15T01:42:57.902Z,1022.18
2023-02-15T01:46:05.859Z,1022.07
2023-02-15T01:49:13.077Z,1022.13
2023-02-15T01:52:20.350Z,1022.11
2023-02-15T01:55:28.169Z,1022.18
2023-02-15T01:58:35.393Z,1022.25
2023-02-15T02:01:42.678Z,1022.25
2023-02-15T02:04:50.138Z,1022.17
2023-02-15T02:07:57.700Z,1022.11
2023-02-15T02:11:04.965Z,1022.10
2023-02-15T02:14:12.357Z,1021.92
2023-02-15T02:17:20.135Z,1021.88
2023-02-15T02:20:27.062Z,1021.95
2023-02-15T02:23:34.622Z,1021.90
2023-02-15T02:26:41.839Z,1021.91
2023-02-15T02:29:49.101Z,1021.85
2023-02-15T02:32:56.865Z,1021.88
2023-02-15T02:36:04.383Z,1021.82
2023-02-15T02:39:11.745Z,1021.78
2023-02-15T02:42:19.066Z,1021.76
2023-02-15T02:45:26.402Z,1021.77
2023-02-15T02:48:33.834Z,1021.70
2023-02-15T02:51:41.379Z,1021.64
2023-02-15T02:54:48.980Z,1021.63
2023-02-15T02:57:56.454Z,1021.59
2023-02-15T03:01:03.526Z,1021.46
2023-02-15T03:04:11.056Z,1021.52
2023-02-15T03:07:18.024Z,1021.52
2023-02-15T03:10:25.624Z,1021.55
2023-02-15T03:13:33.295Z,1021.50
2023-02-15T03:16:40.323Z,1021.44
2023-02-15T03:19:48.008Z,1021.42
2023-02-15T03:22:55.290Z,1021.40
2023-02-15T03:26:02.988Z,1021.42
2023-02-15T03:29:10.530Z,1021.35
2023-02-15T03:32:18.575Z,1021.34
2023-02-15T03:35:26.200Z,1021.34
2023-02-15T03:38:33.476Z,1021.32
2023-02-15T03:41:41.111Z,1021.22
2023-02-15T03:44:48.474Z,1021.26
2023-02-15T03:47:55.945Z,1021.18
2023-02-15T03:51:03.571Z,1021.06
2023-02-15T03:54:10.544Z,1021.06
2023-02-15T03:57:18.124Z,1021.01
2023-02-15T04:00:25.594Z,1020.98
2023-02-15T04:03:32.533Z,1020.94
2023-02-15T04:06:39.703Z,1020.90
2023-02-15T04:09:46.769Z,1021.02
2023-02-15T04:12:54.321Z,1020.97
2023-02-15T04:16:02.292Z,1020.98
2023-02-15T04:19:09.479Z,1021.04
2023-02-15T04:22:17.330Z,1021.01
2023-02-15T04:25:24.910Z,1021.05
2023-02-15T04:28:32.201Z,1021.08
2023-02-15T04:31:39.683Z,1021.03
2023-02-15T04:34:47.318Z,1020.99
2023-02-15T04:37:54.333Z,1021.02
2023-02-15T04:41:01.539Z,1020.97
2023-02-15T04:44:09.164Z,1020.95
2023-02-15T04:47:16.108Z,1020.94
2023-02-15T04:50:23.913Z,1020.93
2023-02-15T04:53:31.476Z,1020.95
2023-02-15T04:56:38.656Z,1020.82
2023-02-15T04:59:46.294Z,1020.73
2023-02-15T05:02:53.960Z,1020.72
2023-02-15T05:06:01.391Z,1020.62
2023-02-15T05:09:09.304Z,1020.59
2023-02-15T05:12:16.749Z,1020.59
2023-02-15T05:15:24.032Z,1020.63
2023-02-15T05:18:31.607Z,1020.64
2023-02-15T05:21:38.925Z,1020.59
2023-02-15T05:24:46.154Z,1020.62
2023-02-15T05:27:53.434Z,1020.58
2023-02-15T05:31:01.330Z,1020.58
2023-02-15T05:34:08.668Z,1020.52
2023-02-15T05:37:15.878Z,1020.57
2023-02-15T05:40:23.619Z,1020.46
2023-02-15T05:43:30.512Z,1020.47
2023-02-15T05:46:37.883Z,1020.40
2023-02-15T05:49:45.591Z,1020.46
2023-02-15T05:52:52.713Z,1020.43
2023-02-15T05:56:01.516Z,1020.45
2023-02-15T05:59:09.134Z,1020.51
2023-02-15T06:02:16.581Z,1020.49
2023-02-15T06:05:24.237Z,1020.46
2023-02-15T06:08:31.753Z,1020.54
2023-02-15T06:11:39.055Z,1020.60
2023-02-15T06:14:46.490Z,1020.64
2023-02-15T06:17:54.237Z,1020.61
2023-02-15T06:21:01.577Z,1020.57
2023-02-15T06:24:08.926Z,1020.57
2023-02-15T06:27:16.568Z,1020.61
2023-02-15T06:30:24.187Z,1020.57
2023-02-15T06:33:32.100Z,1020.54
2023-02-15T06:36:40.125Z,1020.58
2023-02-15T06:39:47.759Z,1020.60
2023-02-15T06:42:55.458Z,1020.63
2023-02-15T06:46:03.372Z,1020.56
2023-02-15T06:49:10.771Z,1020.60
2023-02-15T06:52:18.646Z,1020.57
2023-02-15T06:55:26.243Z,1020.59
2023-02-15T06:58:33.742Z,1020.55
2023-02-15T07:01:41.767Z,1020.51
2023-02-15T07:04:49.647Z,1020.54
2023-02-15T07:07:56.798Z,1020.51
2023-02-15T07:11:04.782Z,1020.47
2023-02-15T07:14:12.113Z,1020.39
2023-02-15T07:17:36.541Z,1020.39
2023-02-15T07:20:25.867Z,1020.30
2023-02-15T07:23:33.159Z,1020.26
2023-02-15T07:26:41.454Z,1020.20
2023-02-15T07:29:49.119Z,1020.14
2023-02-15T07:32:56.768Z,1020.19
2023-02-15T07:36:04.915Z,1020.16
2023-02-15T07:39:12.961Z,1020.08
2023-02-15T07:42:20.186Z,1020.13
2023-02-15T07:45:28.347Z,1020.13
2023-02-15T07:48:35.887Z,1020.13
2023-02-15T07:51:43.802Z,1020.00
2023-02-15T07:54:51.362Z,1020.01
2023-02-15T07:57:58.951Z,1019.95
2023-02-15T08:01:06.813Z,1019.90
2023-02-15T08:04:14.393Z,1019.97
2023-02-15T08:07:21.813Z,1019.98
2023-02-15T08:10:29.437Z,1019.91
2023-02-15T08:13:36.636Z,1019.93
2023-02-15T08:16:44.593Z,1019.92
2023-02-15T08:19:52.443Z,1019.96
2023-02-15T08:23:00.056Z,1019.97
2023-02-15T08:26:08.045Z,1019.95
2023-02-15T08:29:15.512Z,1019.90
2023-02-15T08:32:23.163Z,1019.93
2023-02-15T08:35:30.849Z,1019.87
2023-02-15T08:38:38.092Z,1019.85
2023-02-15T08:41:46.294Z,1019.83
2023-02-15T08:44:54.185Z,1019.82
2023-02-15T08:48:01.285Z,1019.77
2023-02-15T08:51:09.570Z,1019.81
2023-02-15T08:54:17.759Z,1019.83
2023-02-15T08:57:24.867Z,1019.83
2023-02-15T09:00:32.684Z,1019.81
2023-02-15T09:03:39.933Z,1019.74
2023-02-15T09:06:49.025Z,1019.77
2023-02-15T09:09:57.159Z,1019.73
2023-02-15T09:13:04.497Z,1019.66
2023-02-15T09:16:12.482Z,1019.63
2023-02-15T09:19:20.563Z,1019.57
2023-02-15T09:22:28.182Z,1019.47
2023-02-15T09:25:35.757Z,1019.49
2023-02-15T09:28:43.478Z,1019.40
2023-02-15T09:31:51.562Z,1019.47
2023-02-15T09:34:59.278Z,1019.47
2023-02-15T09:38:06.668Z,1019.45
2023-02-15T09:41:14.672Z,1019.49
2023-02-15T09:44:22.008Z,1019.44
2023-02-15T09:47:29.687Z,1019.44
2023-02-15T09:50:37.524Z,1019.47
2023-02-15T09:53:44.584Z,1019.47
2023-02-15T09:56:52.204Z,1019.42
2023-02-15T10:00:00.107Z,1019.37
2023-02-15T10:03:07.243Z,1019.44
2023-02-15T10:06:15.040Z,1019.44
2023-02-15T10:09:22.519Z,1019.42
2023-02-15T10:12:29.963Z,1019.35
2023-02-15T10:15:37.877Z,1019.35
2023-02-15T10:18:45.278Z,1019.22
2023-02-15T10:21:52.779Z,1019.18
2023-02-15T10:25:00.177Z,1019.17
2023-02-15T10:28:08.073Z,1019.18
2023-02-15T10:31:15.896Z,1019.14
2023-02-15T10:34:23.385Z,1019.11
2023-02-15T10:37:31.547Z,1019.03
2023-02-15T10:40:38.581Z,1019.06
2023-02-15T10:43:46.326Z,1018.95
2023-02-15T10:46:54.280Z,1018.97
2023-02-15T10:50:01.531Z,1018.85
2023-02-15T10:53:09.219Z,1018.90
2023-02-15T10:56:16.989Z,1018.84
2023-02-15T10:59:24.034Z,1018.80
2023-02-15T11:02:32.241Z,1018.92
2023-02-15T11:05:39.288Z,1018.81
2023-02-15T11:08:46.750Z,1018.93
2023-02-15T11:11:54.978Z,1018.83
2023-02-15T11:15:02.444Z,1018.81
2023-02-15T11:18:10.019Z,1018.80
2023-02-15T11:21:17.517Z,1018.79
2023-02-15T11:24:25.116Z,1018.78
2023-02-15T11:27:32.434Z,1018.81
2023-02-15T11:30:40.316Z,1018.80
2023-02-15T11:33:48.116Z,1018.74
2023-02-15T11:36:55.711Z,1018.74
2023-02-15T11:40:03.840Z,1018.68
2023-02-15T11:43:11.313Z,1018.59
2023-02-15T11:46:18.605Z,1018.60
2023-02-15T11:49:26.211Z,1018.50
2023-02-15T11:52:33.333Z,1018.50
2023-02-15T11:55:41.043Z,1018.50
2023-02-15T11:58:48.777Z,1018.47
2023-02-15T12:01:55.796Z,1018.47
2023-02-15T12:05:03.353Z,1018.40
2023-02-15T12:08:10.806Z,1018.40
2023-02-15T12:11:18.220Z,1018.34
2023-02-15T12:14:26.099Z,1018.30
2023-02-15T12:17:33.710Z,1018.37
2023-02-15T12:20:41.499Z,1018.22
2023-02-15T12:23:49.183Z,1018.27
2023-02-15T12:26:56.572Z,1018.22
2023-02-15T12:30:04.272Z,1018.29
2023-02-15T12:33:11.534Z,1018.35
2023-02-15T12:36:19.084Z,1018.34
2023-02-15T12:39:26.677Z,1018.33
2023-02-15T12:42:34.214Z,1018.38
2023-02-15T12:45:42.387Z,1018.40
2023-02-15T12:48:49.477Z,1018.29
2023-02-15T12:51:57.165Z,1018.23
2023-02-15T12:55:04.556Z,1018.20
2023-02-15T12:58:11.847Z,1018.15
2023-02-15T13:01:20.148Z,1018.09
2023-02-15T13:04:27.824Z,1018.07
2023-02-15T13:07:35.436Z,1018.08
2023-02-15T13:10:43.307Z,1018.06
2023-02-15T13:13:50.316Z,1017.99
2023-02-15T13:16:58.016Z,1018.02
2023-02-15T13:20:05.565Z,1017.84
2023-02-15T13:23:13.534Z,1017.77
2023-02-15T13:26:20.900Z,1017.78
2023-02-15T13:29:28.206Z,1017.78
2023-02-15T13:32:35.968Z,1017.70
2023-02-15T13:35:43.524Z,1017.65
2023-02-15T13:38:50.970Z,1017.70
2023-02-15T13:41:59.081Z,1017.69
2023-02-15T13:45:06.325Z,1017.70
2023-02-15T13:48:14.245Z,1017.67
2023-02-15T13:51:21.939Z,1017.62
2023-02-15T13:54:29.198Z,1017.58
2023-02-15T13:57:36.932Z,1017.64
2023-02-15T14:00:44.897Z,1017.58
2023-02-15T14:03:52.017Z,1017.72
2023-02-15T14:06:59.885Z,1017.65
2023-02-15T14:10:07.492Z,1017.54
2023-02-15T14:13:14.985Z,1017.56
2023-02-15T14:16:22.790Z,1017.49
2023-02-15T14:19:30.229Z,1017.47
2023-02-15T14:22:37.727Z,1017.51
2023-02-15T14:25:45.193Z,1017.40
2023-02-15T14:28:53.028Z,1017.47
2023-02-15T14:32:00.657Z,1017.44
2023-02-15T14:35:07.948Z,1017.46
2023-02-15T14:38:18.314Z,1017.44
2023-02-15T14:41:25.830Z,1017.48
2023-02-15T14:44:33.422Z,1017.50
2023-02-15T14:47:41.037Z,1017.41
2023-02-15T14:50:48.313Z,1017.38
2023-02-15T14:53:56.308Z,1017.37
2023-02-15T14:57:04.524Z,1017.45
2023-02-15T15:00:11.560Z,1017.37
2023-02-15T15:03:19.424Z,1017.36
2023-02-15T15:06:27.106Z,1017.33
2023-02-15T15:09:34.709Z,1017.42
2023-02-15T15:12:42.492Z,1017.40
2023-02-15T15:15:49.743Z,1017.40
2023-02-15T15:18:57.275Z,1017.38
2023-02-15T15:22:05.198Z,1017.33
2023-02-15T15:25:12.347Z,1017.29
2023-02-15T15:28:20.227Z,1017.29
2023-02-15T15:31:27.855Z,1017.32
2023-02-15T15:34:35.346Z,1017.29
2023-02-15T15:37:42.886Z,1017.24
2023-02-15T15:40:50.156Z,1017.32
2023-02-15T15:43:58.156Z,1017.31
2023-02-15T15:47:05.664Z,1017.37
2023-02-15T15:50:13.341Z,1017.35
2023-02-15T15:53:21.159Z,1017.35
2023-02-15T15:56:28.236Z,1017.32
2023-02-15T15:59:35.988Z,1017.23
2023-02-15T16:02:43.946Z,1017.23
2023-02-15T16:05:51.193Z,1017.28
2023-02-15T16:08:58.512Z,1017.26
2023-02-15T16:12:06.994Z,1017.28
2023-02-15T16:15:14.030Z,1017.26
2023-02-15T16:18:21.988Z,1017.24
2023-02-15T16:21:29.116Z,1017.28
2023-02-15T16:24:36.522Z,1017.31
2023-02-15T16:27:44.414Z,1017.31
2023-02-15T16:30:44.314Z,1017.27
2023-02-15T16:33:51.854Z,1017.18
2023-02-15T16:36:59.327Z,1017.21
2023-02-15T16:40:07.037Z,1017.17
2023-02-15T16:43:14.448Z,1017.19
2023-02-15T16:46:22.310Z,1017.19
2023-02-15T16:49:29.711Z,1017.12
2023-02-15T16:52:37.728Z,1017.16
2023-02-15T16:55:45.100Z,1017.18
2023-02-15T16:58:52.672Z,1017.16
2023-02-15T17:01:59.919Z,1017.07
2023-02-15T17:05:07.513Z,1017.19
2023-02-15T17:08:14.841Z,1017.24
2023-02-15T17:11:21.822Z,1017.32
2023-02-15T17:14:29.585Z,1017.29
2023-02-15T17:17:36.586Z,1017.31
2023-02-15T17:20:44.429Z,1017.26
2023-02-15T17:23:51.953Z,1017.27
2023-02-15T17:26:58.895Z,1017.28
2023-02-15T17:30:06.323Z,1017.26
2023-02-15T17:33:14.100Z,1017.25
2023-02-15T17:36:21.158Z,1017.23
2023-02-15T17:39:28.229Z,1017.10
2023-02-15T17:42:35.576Z,1017.19
2023-02-15T17:45:44.252Z,1017.24
2023-02-15T17:48:51.929Z,1017.18
2023-02-15T17:51:59.281Z,1017.14
2023-02-15T17:55:06.492Z,1017.15
2023-02-15T17:58:13.824Z,1017.21
2023-02-15T18:01:21.746Z,1017.12
2023-02-15T18:04:28.863Z,1017.11
2023-02-15T18:07:35.986Z,1017.07
2023-02-15T18:10:43.802Z,1017.07
2023-02-15T18:13:50.771Z,1017.12
2023-02-15T18:16:58.628Z,1017.16
2023-02-15T18:20:06.383Z,1017.13
2023-02-15T18:23:13.581Z,1017.10
2023-02-15T18:26:21.716Z,1017.12
2023-02-15T18:29:29.165Z,1017.10
2023-02-15T18:32:36.110Z,1017.09
2023-02-15T18:35:43.606Z,1017.03
2023-02-15T18:38:51.143Z,1017.00
2023-02-15T18:41:58.176Z,1016.99
2023-02-15T18:45:06.348Z,1017.03
2023-02-15T18:48:14.245Z,1017.01
2023-02-15T18:51:21.810Z,1016.98
2023-02-15T18:54:29.004Z,1016.99
2023-02-15T18:57:36.740Z,1016.94
2023-02-15T19:00:43.928Z,1016.93
2023-02-15T19:03:51.148Z,1016.90
2023-02-15T19:06:58.940Z,1016.90
2023-02-15T19:10:06.489Z,1016.89
2023-02-15T19:13:13.676Z,1016.82
2023-02-15T19:16:21.508Z,1016.86
2023-02-15T19:19:28.543Z,1016.81
2023-02-15T19:22:36.335Z,1016.82
2023-02-15T19:25:44.155Z,1016.86
2023-02-15T19:28:51.754Z,1016.84
2023-02-15T19:31:59.526Z,1016.85
2023-02-15T19:35:06.779Z,1016.74
2023-02-15T19:38:13.804Z,1016.69
2023-02-15T19:41:21.144Z,1016.75
2023-02-15T19:44:28.510Z,1016.73
2023-02-15T19:47:35.941Z,1016.71
2023-02-15T19:50:43.592Z,1016.84
2023-02-15T19:53:51.215Z,1016.81
2023-02-15T19:56:58.610Z,1016.77
2023-02-15T20:00:20.904Z,1016.74
2023-02-15T20:03:11.204Z,1016.81
2023-02-15T20:06:18.679Z,1016.80
2023-02-15T20:09:26.285Z,1016.80
2023-02-15T20:12:33.756Z,1016.70
2023-02-15T20:15:40.854Z,1016.72
2023-02-15T20:18:48.247Z,1016.62
2023-02-15T20:21:56.051Z,1016.64
2023-02-15T20:25:03.034Z,1016.57
2023-02-15T20:28:10.541Z,1016.62
2023-02-15T20:31:18.273Z,1016.63
2023-02-15T20:34:25.482Z,1016.69
2023-02-15T20:37:34.265Z,1016.71
2023-02-15T20:40:41.591Z,1016.63
2023-02-15T20:43:48.589Z,1016.57
2023-02-15T20:46:56.450Z,1016.50
2023-02-15T20:50:03.948Z,1016.47
2023-02-15T20:53:11.383Z,1016.59
2023-02-15T20:56:19.100Z,1016.61
2023-02-15T20:59:26.607Z,1016.61
2023-02-15T21:02:33.864Z,1016.58
2023-02-15T21:05:41.253Z,1016.67
2023-02-15T21:08:48.686Z,1016.54
2023-02-15T21:11:55.984Z,1016.59
2023-02-15T21:15:03.600Z,1016.56
2023-02-15T21:18:13.297Z,1016.51
2023-02-15T21:21:20.525Z,1016.48
2023-02-15T21:24:27.794Z,1016.46
2023-02-15T21:27:35.381Z,1016.52
2023-02-15T21:30:42.278Z,1016.51
2023-02-15T21:33:50.170Z,1016.51
2023-02-15T21:36:57.652Z,1016.48
2023-02-15T21:40:04.768Z,1016.47
2023-02-15T21:43:11.971Z,1016.55
2023-02-15T21:46:19.280Z,1016.49
2023-02-15T21:49:26.248Z,1016.50
2023-02-15T21:52:33.964Z,1016.58
2023-02-15T21:55:41.433Z,1016.59
2023-02-15T21:58:48.692Z,1016.48
2023-02-15T22:01:56.214Z,1016.45
2023-02-15T22:05:03.864Z,1016.50
2023-02-15T22:08:11.207Z,1016.56
2023-02-15T22:11:18.180Z,1016.57
2023-02-15T22:14:25.800Z,1016.61
2023-02-15T22:17:33.211Z,1016.61
2023-02-15T22:20:40.633Z,1016.67
2023-02-15T22:23:48.561Z,1016.67
2023-02-15T22:26:55.661Z,1016.62
2023-02-15T22:30:03.505Z,1016.64
2023-02-15T22:33:11.297Z,1016.66
2023-02-15T22:36:18.343Z,1016.61
2023-02-15T22:39:26.288Z,1016.58
2023-02-15T22:42:34.063Z,1016.59
2023-02-15T22:45:41.051Z,1016.68
2023-02-15T22:48:48.822Z,1016.75
2023-02-15T22:51:56.095Z,1016.67
2023-02-15T22:55:03.086Z,1016.61
2023-02-15T22:58:10.736Z,1016.61
2023-02-15T23:01:18.159Z,1016.58
2023-02-15T23:04:25.334Z,1016.59
2023-02-15T23:07:32.935Z,1016.58
2023-02-15T23:10:39.946Z,1016.61
2023-02-15T23:13:47.544Z,1016.63
2023-02-15T23:16:54.890Z,1016.67
2023-02-15T23:20:02.288Z,1016.63
2023-02-15T23:23:09.507Z,1016.63
2023-02-15T23:26:16.749Z,1016.59
2023-02-15T23:29:24.364Z,1016.60
2023-02-15T23:32:31.888Z,1016.58
2023-02-15T23:35:39.277Z,1016.59
2023-02-15T23:38:46.536Z,1016.56
2023-02-15T23:41:54.116Z,1016.51
2023-02-15T23:45:01.586Z,1016.54
2023-02-15T23:48:08.627Z,1016.57
2023-02-15T23:51:16.331Z,1016.62
2023-02-15T23:54:23.646Z,1016.62
2023-02-15T23:57:31.118Z,1016.67
